sensor_id;sensor_type;location;lat;lon;timestamp;pressure;altitude;pressure_sealevel;temperature;humidity
32324;BME280;25666;44.350;9.222;2023-05-11T00:01:42;101038.19;;;15.21;100.00
32324;BME280;25666;44.350;9.222;2023-05-11T00:04:08;101041.69;;;15.14;100.00
32324;BME280;25666;44.350;9.222;2023-05-11T00:06:33;101038.53;;;15.16;100.00
32324;BME280;25666;44.350;9.222;2023-05-11T00:08:59;101038.19;;;15.21;100.00
32324;BME280;25666;44.350;9.222;2023-05-11T00:11:24;101036.81;;;15.11;100.00
32324;BME280;25666;44.350;9.222;2023-05-11T00:13:50;101040.06;;;15.13;100.00
32324;BME280;25666;44.350;9.222;2023-05-11T00:16:16;101034.34;;;15.06;100.00
32324;BME280;25666;44.350;9.222;2023-05-11T00:18:41;101035.03;;;14.99;100.00
32324;BME280;25666;44.350;9.222;2023-05-11T00:21:07;101034.78;;;15.08;100.00
32324;BME280;25666;44.350;9.222;2023-05-11T00:23:33;101037.00;;;14.99;100.00
32324;BME280;25666;44.350;9.222;2023-05-11T00:25:58;101032.38;;;15.10;100.00
32324;BME280;25666;44.350;9.222;2023-05-11T00:28:24;101028.00;;;15.09;100.00
32324;BME280;25666;44.350;9.222;2023-05-11T00:30:57;101026.00;;;15.10;100.00
32324;BME280;25666;44.350;9.222;2023-05-11T00:33:23;101024.09;;;15.17;100.00
32324;BME280;25666;44.350;9.222;2023-05-11T00:35:49;101016.19;;;15.23;100.00
32324;BME280;25666;44.350;9.222;2023-05-11T00:38:14;101023.06;;;15.25;100.00
32324;BME280;25666;44.350;9.222;2023-05-11T00:40:40;101022.25;;;15.25;100.00
32324;BME280;25666;44.350;9.222;2023-05-11T00:43:06;101021.78;;;15.23;100.00
32324;BME280;25666;44.350;9.222;2023-05-11T00:45:34;101022.66;;;15.04;100.00
32324;BME280;25666;44.350;9.222;2023-05-11T00:48:00;101019.94;;;15.08;100.00
32324;BME280;25666;44.350;9.222;2023-05-11T00:50:26;101008.72;;;15.08;100.00
32324;BME280;25666;44.350;9.222;2023-05-11T00:52:52;101006.72;;;14.85;100.00
32324;BME280;25666;44.350;9.222;2023-05-11T00:55:18;101008.78;;;14.88;100.00
32324;BME280;25666;44.350;9.222;2023-05-11T00:57:44;100998.38;;;14.89;100.00
32324;BME280;25666;44.350;9.222;2023-05-11T01:00:11;101008.22;;;14.79;100.00
32324;BME280;25666;44.350;9.222;2023-05-11T01:02:37;101009.16;;;14.87;100.00
32324;BME280;25666;44.350;9.222;2023-05-11T01:05:03;101016.16;;;14.55;100.00
32324;BME280;25666;44.350;9.222;2023-05-11T01:07:37;101017.53;;;14.64;100.00
32324;BME280;25666;44.350;9.222;2023-05-11T01:15:45;101006.97;;;14.77;100.00
32324;BME280;25666;44.350;9.222;2023-05-11T01:20:49;101011.13;;;14.64;100.00
32324;BME280;25666;44.350;9.222;2023-05-11T01:26:09;101016.28;;;14.62;100.00
32324;BME280;25666;44.350;9.222;2023-05-11T01:29:12;101027.75;;;14.53;100.00
32324;BME280;25666;44.350;9.222;2023-05-11T01:31:46;101032.38;;;14.45;100.00
32324;BME280;25666;44.350;9.222;2023-05-11T01:34:25;101043.94;;;14.44;100.00
32324;BME280;25666;44.350;9.222;2023-05-11T01:37:14;101045.88;;;14.40;100.00
32324;BME280;25666;44.350;9.222;2023-05-11T01:39:49;101038.22;;;14.37;100.00
32324;BME280;25666;44.350;9.222;2023-05-11T01:42:16;101044.16;;;14.35;100.00
32324;BME280;25666;44.350;9.222;2023-05-11T01:44:47;101044.66;;;14.60;100.00
32324;BME280;25666;44.350;9.222;2023-05-11T01:47:14;101043.56;;;14.65;100.00
32324;BME280;25666;44.350;9.222;2023-05-11T01:49:43;101053.28;;;14.71;100.00
32324;BME280;25666;44.350;9.222;2023-05-11T01:52:10;101046.88;;;14.70;100.00
32324;BME280;25666;44.350;9.222;2023-05-11T01:54:37;101045.56;;;14.64;100.00
32324;BME280;25666;44.350;9.222;2023-05-11T01:57:04;101045.47;;;14.61;100.00
32324;BME280;25666;44.350;9.222;2023-05-11T01:59:31;101048.66;;;14.59;100.00
32324;BME280;25666;44.350;9.222;2023-05-11T02:01:58;101047.41;;;14.57;100.00
32324;BME280;25666;44.350;9.222;2023-05-11T02:04:24;101051.97;;;14.65;100.00
32324;BME280;25666;44.350;9.222;2023-05-11T02:06:52;101044.25;;;14.58;100.00
32324;BME280;25666;44.350;9.222;2023-05-11T02:09:20;101043.06;;;14.40;100.00
32324;BME280;25666;44.350;9.222;2023-05-11T02:11:47;101046.38;;;14.45;100.00
32324;BME280;25666;44.350;9.222;2023-05-11T02:14:16;101046.22;;;14.38;100.00
32324;BME280;25666;44.350;9.222;2023-05-11T02:16:43;101043.81;;;14.37;100.00
32324;BME280;25666;44.350;9.222;2023-05-11T02:19:11;101036.28;;;14.41;100.00
32324;BME280;25666;44.350;9.222;2023-05-11T02:21:38;101044.75;;;14.44;100.00
32324;BME280;25666;44.350;9.222;2023-05-11T02:24:06;101036.44;;;14.48;100.00
32324;BME280;25666;44.350;9.222;2023-05-11T02:26:32;101047.41;;;14.57;100.00
32324;BME280;25666;44.350;9.222;2023-05-11T02:29:00;101043.28;;;14.51;100.00
32324;BME280;25666;44.350;9.222;2023-05-11T02:31:29;101036.19;;;14.57;100.00
32324;BME280;25666;44.350;9.222;2023-05-11T02:34:06;101039.44;;;14.59;100.00
32324;BME280;25666;44.350;9.222;2023-05-11T02:36:36;101037.91;;;14.61;100.00
32324;BME280;25666;44.350;9.222;2023-05-11T02:39:07;101047.13;;;14.62;100.00
32324;BME280;25666;44.350;9.222;2023-05-11T02:41:38;101042.75;;;14.64;100.00
32324;BME280;25666;44.350;9.222;2023-05-11T02:44:07;101035.59;;;14.67;100.00
32324;BME280;25666;44.350;9.222;2023-05-11T02:46:37;101046.06;;;14.51;100.00
32324;BME280;25666;44.350;9.222;2023-05-11T02:49:06;101040.53;;;14.73;100.00
32324;BME280;25666;44.350;9.222;2023-05-11T02:51:36;101039.44;;;14.59;100.00
32324;BME280;25666;44.350;9.222;2023-05-11T02:54:05;101044.41;;;14.46;100.00
32324;BME280;25666;44.350;9.222;2023-05-11T02:56:34;101037.41;;;14.36;100.00
32324;BME280;25666;44.350;9.222;2023-05-11T02:58:59;101042.78;;;14.45;100.00
32324;BME280;25666;44.350;9.222;2023-05-11T03:01:26;101040.19;;;14.36;100.00
32324;BME280;25666;44.350;9.222;2023-05-11T03:03:52;101038.50;;;14.51;100.00
32324;BME280;25666;44.350;9.222;2023-05-11T03:06:18;101034.16;;;14.34;100.00
32324;BME280;25666;44.350;9.222;2023-05-11T03:08:44;101024.28;;;14.40;100.00
32324;BME280;25666;44.350;9.222;2023-05-11T03:11:11;101038.34;;;14.44;100.00
32324;BME280;25666;44.350;9.222;2023-05-11T03:13:40;101030.44;;;14.11;100.00
32324;BME280;25666;44.350;9.222;2023-05-11T03:16:08;101023.94;;;14.07;100.00
32324;BME280;25666;44.350;9.222;2023-05-11T03:18:35;101029.47;;;14.04;100.00
32324;BME280;25666;44.350;9.222;2023-05-11T03:21:01;101023.56;;;13.89;100.00
32324;BME280;25666;44.350;9.222;2023-05-11T03:23:27;101018.00;;;14.09;100.00
32324;BME280;25666;44.350;9.222;2023-05-11T03:25:53;101015.31;;;13.97;100.00
32324;BME280;25666;44.350;9.222;2023-05-11T03:28:21;101009.88;;;13.84;100.00
32324;BME280;25666;44.350;9.222;2023-05-11T03:30:57;101005.59;;;14.10;100.00
32324;BME280;25666;44.350;9.222;2023-05-11T03:33:22;101002.47;;;13.76;100.00
32324;BME280;25666;44.350;9.222;2023-05-11T03:35:50;101005.19;;;13.73;100.00
32324;BME280;25666;44.350;9.222;2023-05-11T03:38:21;101002.72;;;13.87;100.00
32324;BME280;25666;44.350;9.222;2023-05-11T03:40:48;101008.81;;;13.73;100.00
32324;BME280;25666;44.350;9.222;2023-05-11T03:43:18;101001.47;;;13.84;100.00
32324;BME280;25666;44.350;9.222;2023-05-11T03:45:48;101010.88;;;13.76;100.00
32324;BME280;25666;44.350;9.222;2023-05-11T03:48:16;101003.13;;;13.70;100.00
32324;BME280;25666;44.350;9.222;2023-05-11T03:50:42;101001.31;;;13.77;100.00
32324;BME280;25666;44.350;9.222;2023-05-11T03:53:10;100994.91;;;13.77;100.00
32324;BME280;25666;44.350;9.222;2023-05-11T03:55:36;100997.25;;;13.75;100.00
32324;BME280;25666;44.350;9.222;2023-05-11T03:58:06;100993.50;;;13.86;100.00
32324;BME280;25666;44.350;9.222;2023-05-11T04:00:32;100994.03;;;13.92;100.00
32324;BME280;25666;44.350;9.222;2023-05-11T04:03:03;100985.72;;;13.95;100.00
32324;BME280;25666;44.350;9.222;2023-05-11T04:05:47;100987.75;;;13.79;100.00
32324;BME280;25666;44.350;9.222;2023-05-11T04:08:12;100987.75;;;13.79;100.00
32324;BME280;25666;44.350;9.222;2023-05-11T04:10:38;100993.59;;;13.90;100.00
32324;BME280;25666;44.350;9.222;2023-05-11T04:13:04;100989.53;;;13.68;100.00
32324;BME280;25666;44.350;9.222;2023-05-11T04:15:29;100992.09;;;13.77;100.00
32324;BME280;25666;44.350;9.222;2023-05-11T04:17:55;100995.19;;;13.72;100.00
32324;BME280;25666;44.350;9.222;2023-05-11T04:20:20;100987.53;;;13.69;100.00
32324;BME280;25666;44.350;9.222;2023-05-11T04:22:46;100988.69;;;13.68;100.00
32324;BME280;25666;44.350;9.222;2023-05-11T04:25:11;100996.88;;;13.76;100.00
32324;BME280;25666;44.350;9.222;2023-05-11T04:27:38;100997.47;;;13.85;100.00
32324;BME280;25666;44.350;9.222;2023-05-11T04:30:04;100991.81;;;13.82;100.00
32324;BME280;25666;44.350;9.222;2023-05-11T04:32:30;100991.34;;;13.61;100.00
32324;BME280;25666;44.350;9.222;2023-05-11T04:34:56;100992.91;;;13.77;100.00
32324;BME280;25666;44.350;9.222;2023-05-11T04:37:23;100983.50;;;13.85;100.00
32324;BME280;25666;44.350;9.222;2023-05-11T04:39:50;100984.31;;;13.86;100.00
32324;BME280;25666;44.350;9.222;2023-05-11T04:42:15;100982.41;;;13.90;100.00
32324;BME280;25666;44.350;9.222;2023-05-11T04:44:43;100982.19;;;13.99;100.00
32324;BME280;25666;44.350;9.222;2023-05-11T04:47:09;100985.06;;;14.02;100.00
32324;BME280;25666;44.350;9.222;2023-05-11T04:49:34;100980.56;;;14.17;100.00
32324;BME280;25666;44.350;9.222;2023-05-11T04:52:00;100979.03;;;14.00;100.00
32324;BME280;25666;44.350;9.222;2023-05-11T04:54:26;100983.19;;;14.10;100.00
32324;BME280;25666;44.350;9.222;2023-05-11T04:56:51;100985.19;;;14.28;100.00
32324;BME280;25666;44.350;9.222;2023-05-11T04:59:18;100976.44;;;14.30;100.00
32324;BME280;25666;44.350;9.222;2023-05-11T05:01:43;100980.41;;;14.48;100.00
32324;BME280;25666;44.350;9.222;2023-05-11T05:04:09;100968.97;;;14.79;100.00
32324;BME280;25666;44.350;9.222;2023-05-11T05:06:34;100970.69;;;15.07;100.00
32324;BME280;25666;44.350;9.222;2023-05-11T05:09:01;100977.13;;;15.11;100.00
32324;BME280;25666;44.350;9.222;2023-05-11T05:11:28;100975.94;;;15.34;100.00
32324;BME280;25666;44.350;9.222;2023-05-11T05:13:53;100978.59;;;15.50;100.00
32324;BME280;25666;44.350;9.222;2023-05-11T05:16:19;100982.47;;;15.68;100.00
32324;BME280;25666;44.350;9.222;2023-05-11T05:18:44;100978.38;;;15.92;100.00
32324;BME280;25666;44.350;9.222;2023-05-11T05:21:10;100986.41;;;16.23;100.00
32324;BME280;25666;44.350;9.222;2023-05-11T05:23:36;100979.59;;;16.24;100.00
32324;BME280;25666;44.350;9.222;2023-05-11T05:26:01;100984.16;;;16.36;100.00
32324;BME280;25666;44.350;9.222;2023-05-11T05:28:27;100985.63;;;16.56;100.00
32324;BME280;25666;44.350;9.222;2023-05-11T05:30:53;100986.81;;;16.55;100.00
32324;BME280;25666;44.350;9.222;2023-05-11T05:33:19;100986.63;;;16.41;100.00
32324;BME280;25666;44.350;9.222;2023-05-11T05:35:45;100980.13;;;16.70;100.00
32324;BME280;25666;44.350;9.222;2023-05-11T05:38:14;100971.34;;;17.67;100.00
32324;BME280;25666;44.350;9.222;2023-05-11T05:40:39;100979.81;;;18.60;100.00
32324;BME280;25666;44.350;9.222;2023-05-11T05:43:06;100968.97;;;19.36;100.00
32324;BME280;25666;44.350;9.222;2023-05-11T05:45:31;100974.66;;;20.62;100.00
32324;BME280;25666;44.350;9.222;2023-05-11T05:47:57;100975.91;;;22.92;100.00
32324;BME280;25666;44.350;9.222;2023-05-11T05:50:26;100970.44;;;25.86;92.87
32324;BME280;25666;44.350;9.222;2023-05-11T05:52:51;100970.28;;;27.73;69.60
32324;BME280;25666;44.350;9.222;2023-05-11T05:55:18;100966.19;;;29.01;57.71
32324;BME280;25666;44.350;9.222;2023-05-11T05:57:46;100970.75;;;29.96;52.40
32324;BME280;25666;44.350;9.222;2023-05-11T06:00:12;100961.88;;;31.38;45.00
32324;BME280;25666;44.350;9.222;2023-05-11T06:02:38;100959.38;;;32.17;41.95
32324;BME280;25666;44.350;9.222;2023-05-11T06:05:04;100964.63;;;31.00;40.42
32324;BME280;25666;44.350;9.222;2023-05-11T06:07:30;100965.13;;;30.11;39.80
32324;BME280;25666;44.350;9.222;2023-05-11T06:09:55;100961.19;;;29.90;41.27
32324;BME280;25666;44.350;9.222;2023-05-11T06:12:21;100960.69;;;30.10;39.88
32324;BME280;25666;44.350;9.222;2023-05-11T06:14:49;100946.91;;;30.50;39.94
32324;BME280;25666;44.350;9.222;2023-05-11T06:17:16;100948.59;;;31.17;37.64
32324;BME280;25666;44.350;9.222;2023-05-11T06:19:43;100935.25;;;33.22;34.79
32324;BME280;25666;44.350;9.222;2023-05-11T06:22:08;100932.41;;;34.86;32.61
32324;BME280;25666;44.350;9.222;2023-05-11T06:24:34;100940.81;;;34.58;32.32
32324;BME280;25666;44.350;9.222;2023-05-11T06:27:00;100934.44;;;38.39;28.07
32324;BME280;25666;44.350;9.222;2023-05-11T06:29:27;100949.47;;;39.99;25.15
32324;BME280;25666;44.350;9.222;2023-05-11T06:31:53;100934.00;;;39.86;25.10
32324;BME280;25666;44.350;9.222;2023-05-11T06:34:21;100936.28;;;39.74;23.88
32324;BME280;25666;44.350;9.222;2023-05-11T06:36:47;100927.94;;;41.03;23.26
32324;BME280;25666;44.350;9.222;2023-05-11T06:39:12;100924.31;;;41.89;22.49
32324;BME280;25666;44.350;9.222;2023-05-11T06:41:38;100928.66;;;42.22;21.41
32324;BME280;25666;44.350;9.222;2023-05-11T06:44:04;100922.50;;;42.33;21.26
32324;BME280;25666;44.350;9.222;2023-05-11T06:46:35;100917.28;;;42.73;20.65
32324;BME280;25666;44.350;9.222;2023-05-11T06:49:01;100914.34;;;41.72;22.06
32324;BME280;25666;44.350;9.222;2023-05-11T06:51:27;100915.97;;;42.40;21.11
32324;BME280;25666;44.350;9.222;2023-05-11T06:53:52;100922.53;;;40.94;20.94
32324;BME280;25666;44.350;9.222;2023-05-11T06:56:17;100915.81;;;38.53;21.54
32324;BME280;25666;44.350;9.222;2023-05-11T06:58:43;100898.44;;;40.75;20.63
32324;BME280;25666;44.350;9.222;2023-05-11T07:01:10;100911.53;;;36.70;22.99
32324;BME280;25666;44.350;9.222;2023-05-11T07:03:35;100916.63;;;39.56;21.48
32324;BME280;25666;44.350;9.222;2023-05-11T07:06:01;100910.50;;;39.59;21.14
32324;BME280;25666;44.350;9.222;2023-05-11T07:08:27;100900.84;;;38.02;22.30
32324;BME280;25666;44.350;9.222;2023-05-11T07:10:52;100898.59;;;38.20;21.81
32324;BME280;25666;44.350;9.222;2023-05-11T07:13:18;100905.13;;;38.37;21.73
32324;BME280;25666;44.350;9.222;2023-05-11T07:15:43;100899.88;;;36.15;24.72
32324;BME280;25666;44.350;9.222;2023-05-11T07:18:09;100899.97;;;38.48;25.33
32324;BME280;25666;44.350;9.222;2023-05-11T07:20:35;100903.38;;;39.36;24.60
32324;BME280;25666;44.350;9.222;2023-05-11T07:23:05;100903.16;;;38.10;24.94
32324;BME280;25666;44.350;9.222;2023-05-11T07:25:30;100910.06;;;39.93;24.01
32324;BME280;25666;44.350;9.222;2023-05-11T07:27:55;100903.66;;;40.63;23.48
32324;BME280;25666;44.350;9.222;2023-05-11T07:30:21;100915.41;;;38.97;23.56
32324;BME280;25666;44.350;9.222;2023-05-11T07:32:47;100911.91;;;38.45;23.68
32324;BME280;25666;44.350;9.222;2023-05-11T07:35:12;100919.59;;;38.42;24.56
32324;BME280;25666;44.350;9.222;2023-05-11T07:37:39;100914.63;;;38.32;25.03
32324;BME280;25666;44.350;9.222;2023-05-11T07:40:05;100912.50;;;38.68;23.91
32324;BME280;25666;44.350;9.222;2023-05-11T07:42:31;100911.00;;;40.20;22.93
32324;BME280;25666;44.350;9.222;2023-05-11T07:44:56;100911.03;;;38.55;24.36
32324;BME280;25666;44.350;9.222;2023-05-11T07:47:22;100905.97;;;39.40;23.28
32324;BME280;25666;44.350;9.222;2023-05-11T07:49:48;100909.50;;;38.08;24.58
32324;BME280;25666;44.350;9.222;2023-05-11T07:52:15;100910.63;;;37.25;24.93
32324;BME280;25666;44.350;9.222;2023-05-11T07:54:40;100915.88;;;35.40;26.08
32324;BME280;25666;44.350;9.222;2023-05-11T07:57:06;100918.34;;;33.70;28.33
32324;BME280;25666;44.350;9.222;2023-05-11T07:59:32;100912.78;;;34.64;26.73
32324;BME280;25666;44.350;9.222;2023-05-11T08:01:57;100910.97;;;31.92;29.14
32324;BME280;25666;44.350;9.222;2023-05-11T08:04:23;100903.22;;;29.19;33.17
32324;BME280;25666;44.350;9.222;2023-05-11T08:06:48;100915.72;;;27.67;38.70
32324;BME280;25666;44.350;9.222;2023-05-11T08:09:14;100911.97;;;26.48;45.00
32324;BME280;25666;44.350;9.222;2023-05-11T08:11:40;100923.69;;;24.90;59.23
32324;BME280;25666;44.350;9.222;2023-05-11T08:14:06;100924.94;;;24.17;74.02
32324;BME280;25666;44.350;9.222;2023-05-11T08:16:31;100927.53;;;23.69;81.01
32324;BME280;25666;44.350;9.222;2023-05-11T08:18:57;100923.28;;;23.11;85.12
32324;BME280;25666;44.350;9.222;2023-05-11T08:21:23;100931.44;;;22.55;85.98
32324;BME280;25666;44.350;9.222;2023-05-11T08:23:48;100934.53;;;22.07;93.98
32324;BME280;25666;44.350;9.222;2023-05-11T08:26:14;100928.09;;;21.66;92.68
32324;BME280;25666;44.350;9.222;2023-05-11T08:28:40;100935.09;;;21.58;95.64
32324;BME280;25666;44.350;9.222;2023-05-11T08:31:05;100925.50;;;21.45;92.13
32324;BME280;25666;44.350;9.222;2023-05-11T08:33:31;100925.84;;;21.50;100.00
32324;BME280;25666;44.350;9.222;2023-05-11T08:35:57;100931.13;;;21.48;98.29
32324;BME280;25666;44.350;9.222;2023-05-11T08:38:23;100927.59;;;20.89;94.25
32324;BME280;25666;44.350;9.222;2023-05-11T08:40:50;100926.44;;;20.83;100.00
32324;BME280;25666;44.350;9.222;2023-05-11T08:43:17;100930.69;;;21.05;100.00
32324;BME280;25666;44.350;9.222;2023-05-11T08:45:47;100922.06;;;20.71;94.04
32324;BME280;25666;44.350;9.222;2023-05-11T08:48:15;100931.97;;;20.97;98.86
32324;BME280;25666;44.350;9.222;2023-05-11T08:50:45;100928.78;;;20.92;99.40
32324;BME280;25666;44.350;9.222;2023-05-11T08:53:12;100937.31;;;20.88;91.92
32324;BME280;25666;44.350;9.222;2023-05-11T08:55:38;100927.66;;;20.82;92.05
32324;BME280;25666;44.350;9.222;2023-05-11T08:58:06;100927.81;;;21.12;93.82
32324;BME280;25666;44.350;9.222;2023-05-11T09:00:32;100937.97;;;21.06;94.54
32324;BME280;25666;44.350;9.222;2023-05-11T09:02:58;100943.66;;;21.03;99.55
32324;BME280;25666;44.350;9.222;2023-05-11T09:05:25;100936.47;;;20.91;94.48
32324;BME280;25666;44.350;9.222;2023-05-11T09:08:00;100935.34;;;20.81;99.58
32324;BME280;25666;44.350;9.222;2023-05-11T09:10:28;100941.63;;;21.03;95.30
32324;BME280;25666;44.350;9.222;2023-05-11T09:12:53;100943.28;;;20.97;99.39
32324;BME280;25666;44.350;9.222;2023-05-11T09:15:19;100935.09;;;21.17;100.00
32324;BME280;25666;44.350;9.222;2023-05-11T09:17:45;100930.31;;;21.48;98.27
32324;BME280;25666;44.350;9.222;2023-05-11T09:20:10;100928.41;;;21.38;100.00
32324;BME280;25666;44.350;9.222;2023-05-11T09:22:44;100924.88;;;21.67;94.56
32324;BME280;25666;44.350;9.222;2023-05-11T09:25:11;100931.28;;;21.30;89.73
32324;BME280;25666;44.350;9.222;2023-05-11T09:27:45;100939.03;;;21.26;100.00
32324;BME280;25666;44.350;9.222;2023-05-11T09:30:16;100927.13;;;20.98;100.00
32324;BME280;25666;44.350;9.222;2023-05-11T09:32:51;100922.56;;;21.14;100.00
32324;BME280;25666;44.350;9.222;2023-05-11T09:35:27;100926.06;;;21.29;100.00
32324;BME280;25666;44.350;9.222;2023-05-11T09:38:03;100921.25;;;21.26;100.00
32324;BME280;25666;44.350;9.222;2023-05-11T09:40:30;100927.94;;;21.43;100.00
32324;BME280;25666;44.350;9.222;2023-05-11T09:42:57;100924.31;;;21.42;100.00
32324;BME280;25666;44.350;9.222;2023-05-11T09:45:36;100925.56;;;21.38;100.00
32324;BME280;25666;44.350;9.222;2023-05-11T09:48:03;100926.38;;;21.38;100.00
32324;BME280;25666;44.350;9.222;2023-05-11T09:50:33;100922.50;;;21.59;100.00
32324;BME280;25666;44.350;9.222;2023-05-11T09:52:59;100923.53;;;21.38;100.00
32324;BME280;25666;44.350;9.222;2023-05-11T09:55:24;100922.59;;;21.52;100.00
32324;BME280;25666;44.350;9.222;2023-05-11T09:57:54;100917.63;;;21.63;100.00
32324;BME280;25666;44.350;9.222;2023-05-11T10:00:20;100924.34;;;21.76;100.00
32324;BME280;25666;44.350;9.222;2023-05-11T10:02:59;100922.50;;;21.59;100.00
32324;BME280;25666;44.350;9.222;2023-05-11T10:05:25;100935.47;;;21.60;100.00
32324;BME280;25666;44.350;9.222;2023-05-11T10:07:58;100920.25;;;21.80;100.00
32324;BME280;25666;44.350;9.222;2023-05-11T10:10:26;100928.28;;;21.89;100.00
32324;BME280;25666;44.350;9.222;2023-05-11T10:12:53;100922.28;;;21.80;100.00
32324;BME280;25666;44.350;9.222;2023-05-11T10:15:18;100927.56;;;21.78;100.00
32324;BME280;25666;44.350;9.222;2023-05-11T10:17:53;100932.34;;;21.47;100.00
32324;BME280;25666;44.350;9.222;2023-05-11T10:20:19;100934.38;;;21.47;100.00
32324;BME280;25666;44.350;9.222;2023-05-11T10:22:45;100935.78;;;21.28;100.00
32324;BME280;25666;44.350;9.222;2023-05-11T10:25:11;100946.16;;;20.94;100.00
32324;BME280;25666;44.350;9.222;2023-05-11T10:27:36;100938.81;;;21.00;100.00
32324;BME280;25666;44.350;9.222;2023-05-11T10:30:02;100932.69;;;21.08;100.00
32324;BME280;25666;44.350;9.222;2023-05-11T10:32:30;100940.50;;;20.94;100.00
32324;BME280;25666;44.350;9.222;2023-05-11T10:34:55;100932.09;;;20.83;100.00
32324;BME280;25666;44.350;9.222;2023-05-11T10:37:21;100935.56;;;21.05;100.00
32324;BME280;25666;44.350;9.222;2023-05-11T10:39:47;100935.59;;;21.01;100.00
32324;BME280;25666;44.350;9.222;2023-05-11T10:45:35;100943.28;;;21.01;100.00
32324;BME280;25666;44.350;9.222;2023-05-11T10:53:53;100939.28;;;20.95;100.00
32324;BME280;25666;44.350;9.222;2023-05-11T10:57:05;100941.56;;;21.14;100.00
32324;BME280;25666;44.350;9.222;2023-05-11T11:02:20;100942.44;;;21.04;100.00
32324;BME280;25666;44.350;9.222;2023-05-11T11:04:48;100938.38;;;21.05;100.00
32324;BME280;25666;44.350;9.222;2023-05-11T11:07:14;100931.09;;;21.07;100.00
32324;BME280;25666;44.350;9.222;2023-05-11T11:10:00;100939.09;;;21.19;100.00
32324;BME280;25666;44.350;9.222;2023-05-11T11:12:26;100939.56;;;21.07;100.00
32324;BME280;25666;44.350;9.222;2023-05-11T11:17:29;100952.50;;;21.12;100.00
32324;BME280;25666;44.350;9.222;2023-05-11T11:20:05;100956.97;;;21.09;100.00
32324;BME280;25666;44.350;9.222;2023-05-11T11:25:09;100965.75;;;20.67;100.00
32324;BME280;25666;44.350;9.222;2023-05-11T11:30:28;100960.47;;;20.72;100.00
32324;BME280;25666;44.350;9.222;2023-05-11T11:38:05;100968.41;;;20.15;100.00
32324;BME280;25666;44.350;9.222;2023-05-11T11:40:35;100972.94;;;19.95;100.00
32324;BME280;25666;44.350;9.222;2023-05-11T11:43:24;100962.03;;;19.97;100.00
32324;BME280;25666;44.350;9.222;2023-05-11T11:45:54;100959.16;;;20.08;100.00
32324;BME280;25666;44.350;9.222;2023-05-11T11:48:30;100958.84;;;19.85;100.00
32324;BME280;25666;44.350;9.222;2023-05-11T11:51:12;100967.31;;;19.70;100.00
32324;BME280;25666;44.350;9.222;2023-05-11T12:01:06;100970.84;;;20.13;100.00
32324;BME280;25666;44.350;9.222;2023-05-11T12:03:35;100969.22;;;20.16;100.00
32324;BME280;25666;44.350;9.222;2023-05-11T12:06:04;100965.28;;;19.85;100.00
32324;BME280;25666;44.350;9.222;2023-05-11T12:08:29;100964.69;;;20.36;100.00
32324;BME280;25666;44.350;9.222;2023-05-11T12:10:59;100957.00;;;20.40;100.00
32324;BME280;25666;44.350;9.222;2023-05-11T12:13:26;100959.19;;;20.01;100.00
32324;BME280;25666;44.350;9.222;2023-05-11T12:16:13;100956.50;;;20.59;100.00
32324;BME280;25666;44.350;9.222;2023-05-11T12:18:39;100955.66;;;20.66;100.00
32324;BME280;25666;44.350;9.222;2023-05-11T12:21:05;100957.50;;;20.90;100.00
32324;BME280;25666;44.350;9.222;2023-05-11T12:23:31;100954.56;;;21.04;100.00
32324;BME280;25666;44.350;9.222;2023-05-11T12:26:06;100952.44;;;21.19;100.00
32324;BME280;25666;44.350;9.222;2023-05-11T12:28:32;100959.25;;;21.25;100.00
32324;BME280;25666;44.350;9.222;2023-05-11T12:30:58;100950.13;;;21.00;100.00
32324;BME280;25666;44.350;9.222;2023-05-11T12:33:23;100947.75;;;20.98;100.00
32324;BME280;25666;44.350;9.222;2023-05-11T12:35:53;100945.66;;;21.02;100.00
32324;BME280;25666;44.350;9.222;2023-05-11T12:38:19;100940.72;;;21.20;100.00
32324;BME280;25666;44.350;9.222;2023-05-11T12:40:46;100946.81;;;21.15;100.00
32324;BME280;25666;44.350;9.222;2023-05-11T12:43:16;100949.09;;;21.31;100.00
32324;BME280;25666;44.350;9.222;2023-05-11T12:45:42;100956.72;;;21.38;100.00
32324;BME280;25666;44.350;9.222;2023-05-11T12:48:08;100953.63;;;21.21;100.00
32324;BME280;25666;44.350;9.222;2023-05-11T12:50:45;100947.38;;;21.41;100.00
32324;BME280;25666;44.350;9.222;2023-05-11T12:53:14;100949.44;;;21.36;100.00
32324;BME280;25666;44.350;9.222;2023-05-11T12:55:41;100941.75;;;21.37;100.00
32324;BME280;25666;44.350;9.222;2023-05-11T13:00:34;100934.66;;;21.18;100.00
32324;BME280;25666;44.350;9.222;2023-05-11T13:03:00;100929.31;;;21.24;100.00
32324;BME280;25666;44.350;9.222;2023-05-11T13:05:26;100930.44;;;20.89;100.00
32324;BME280;25666;44.350;9.222;2023-05-11T13:08:02;100933.03;;;20.66;100.00
32324;BME280;25666;44.350;9.222;2023-05-11T13:10:27;100926.59;;;21.17;100.00
32324;BME280;25666;44.350;9.222;2023-05-11T13:12:54;100920.16;;;21.13;100.00
32324;BME280;25666;44.350;9.222;2023-05-11T13:15:21;100914.34;;;21.27;100.00
32324;BME280;25666;44.350;9.222;2023-05-11T13:17:47;100916.94;;;21.07;100.00
32324;BME280;25666;44.350;9.222;2023-05-11T13:20:24;100912.84;;;21.15;100.00
32324;BME280;25666;44.350;9.222;2023-05-11T13:23:10;100914.00;;;21.21;100.00
32324;BME280;25666;44.350;9.222;2023-05-11T13:28:13;100913.34;;;21.48;100.00
32324;BME280;25666;44.350;9.222;2023-05-11T13:30:39;100912.25;;;21.34;100.00
32324;BME280;25666;44.350;9.222;2023-05-11T13:33:05;100911.59;;;21.61;100.00
32324;BME280;25666;44.350;9.222;2023-05-11T13:35:30;100909.59;;;21.58;100.00